Time;durP1;ratioP1;P1;durP2;ratioP2;P2;SDS_P1;SDS_P2;PMS_P1;PMS_P2;Temp;Humidity;BMP_temperature;BMP_pressure;BME280_temperature;BME280_humidity;BME280_pressure;Samples;Min_cycle;Max_cycle;Signal;HPM_P1;HPM_P2
2023/01/18 00:00:45;;;;;;;10.10;5.00;;;3.00;9.80;;;;;;4951699;28;20539;-75
2023/01/18 00:03:12;;;;;;;7.63;4.03;;;2.90;12.90;;;;;;4952569;28;21246;-75
2023/01/18 00:05:39;;;;;;;11.10;4.40;;;2.80;12.50;;;;;;4949649;28;20276;-75
2023/01/18 00:08:06;;;;;;;9.50;4.50;;;2.80;10.40;;;;;;4949138;28;20447;-75
2023/01/18 00:10:32;;;;;;;5.37;3.97;;;3.30;14.40;;;;;;4951766;28;20989;-75
2023/01/18 00:12:57;;;;;;;6.53;4.03;;;2.80;15.40;;;;;;4947725;28;20495;-76
2023/01/18 00:15:23;;;;;;;8.70;3.77;;;2.70;14.30;;;;;;4952296;28;20263;-76
2023/01/18 00:17:52;;;;;;;13.23;4.07;;;2.70;15.70;;;;;;4954001;28;20189;-74
2023/01/18 00:20:23;;;;;;;11.90;3.97;;;2.70;13.90;;;;;;4952124;28;20197;-75
2023/01/18 00:22:49;;;;;;;10.03;3.93;;;2.80;17.10;;;;;;4949810;28;20442;-75
2023/01/18 00:25:15;;;;;;;5.60;4.27;;;2.90;16.00;;;;;;4953851;28;20836;-73
2023/01/18 00:27:45;;;;;;;7.27;4.50;;;2.80;16.70;;;;;;4952297;28;20452;-75
2023/01/18 00:30:12;;;;;;;8.90;4.80;;;2.80;12.20;;;;;;4952860;28;20889;-75
2023/01/18 00:32:37;;;;;;;10.93;4.77;;;2.70;12.00;;;;;;4954763;28;20432;-73
2023/01/18 00:35:06;;;;;;;7.50;4.40;;;2.70;18.10;;;;;;4953229;28;20459;-74
2023/01/18 00:37:35;;;;;;;10.43;4.50;;;2.70;17.30;;;;;;4952021;28;20199;-75
2023/01/18 00:40:02;;;;;;;9.13;4.40;;;2.70;14.60;;;;;;4952448;28;21001;-74
2023/01/18 00:45:12;;;;;;;11.90;4.67;;;2.80;18.90;;;;;;4953127;28;20829;-74
2023/01/18 00:47:37;;;;;;;9.93;4.37;;;2.80;19.20;;;;;;4953329;28;20432;-75
2023/01/18 00:50:03;;;;;;;7.13;4.40;;;2.80;15.50;;;;;;4947340;28;20293;-75
2023/01/18 00:52:29;;;;;;;9.97;4.90;;;2.80;21.00;;;;;;4952656;28;20203;-75
2023/01/18 00:54:55;;;;;;;8.80;4.70;;;2.80;24.40;;;;;;4951965;28;20440;-75
2023/01/18 00:57:20;;;;;;;6.90;3.93;;;2.90;25.30;;;;;;4952942;28;20184;-75
2023/01/18 00:59:46;;;;;;;6.97;3.33;;;3.00;26.40;;;;;;4954283;28;20679;-75
2023/01/18 01:02:12;;;;;;;5.77;3.77;;;3.10;24.40;;;;;;4951365;28;20200;-75
2023/01/18 01:07:22;;;;;;;5.93;3.80;;;3.20;18.90;;;;;;4952098;28;21005;-75
2023/01/18 01:09:47;;;;;;;7.83;4.00;;;3.30;16.10;;;;;;4952586;28;20842;-72
2023/01/18 01:26:02;;;;;;;5.73;3.73;;;3.20;8.90;;;;;;4947122;28;20463;-75
2023/01/18 01:28:27;;;;;;;7.23;3.80;;;3.10;15.40;;;;;;4951652;28;20444;-75
2023/01/18 01:31:00;;;;;;;7.83;4.20;;;3.10;15.30;;;;;;4952926;28;20543;-76
2023/01/18 01:33:27;;;;;;;8.27;4.33;;;3.00;14.50;;;;;;4951183;28;20242;-75
2023/01/18 01:36:02;;;;;;;6.97;4.20;;;2.90;18.10;;;;;;4951514;28;21020;-75
2023/01/18 01:38:28;;;;;;;6.93;4.10;;;2.90;21.30;;;;;;4951253;28;20471;-75
2023/01/18 01:41:05;;;;;;;6.50;4.10;;;2.80;24.00;;;;;;4952652;28;20483;-76
2023/01/18 01:43:45;;;;;;;6.93;3.97;;;2.70;26.70;;;;;;4943986;28;20184;-75
2023/01/18 01:46:19;;;;;;;8.80;4.10;;;2.70;33.10;;;;;;4952581;28;20487;-74
2023/01/18 01:48:47;;;;;;;8.90;4.53;;;2.70;26.90;;;;;;4946954;28;20867;-75
2023/01/18 01:51:17;;;;;;;7.83;4.20;;;3.00;26.20;;;;;;4951924;28;20464;-76
2023/01/18 01:53:43;;;;;;;7.57;4.80;;;2.60;33.00;;;;;;4949636;28;20450;-75
2023/01/18 01:56:09;;;;;;;7.23;4.53;;;2.90;33.40;;;;;;4956346;28;20464;-75
2023/01/18 01:58:35;;;;;;;7.53;4.77;;;3.00;33.40;;;;;;4954656;28;20523;-75
2023/01/18 02:01:01;;;;;;;11.93;5.20;;;2.70;33.10;;;;;;4955341;28;20347;-75
2023/01/18 02:03:27;;;;;;;8.70;4.60;;;2.60;32.90;;;;;;4954642;28;20519;-75
2023/01/18 02:06:04;;;;;;;12.00;4.80;;;2.70;33.00;;;;;;4948221;28;20191;-75
2023/01/18 02:08:29;;;;;;;11.70;5.03;;;2.60;32.90;;;;;;4950859;28;20467;-74
2023/01/18 02:10:55;;;;;;;10.30;4.87;;;2.70;33.10;;;;;;4951765;28;20467;-75
2023/01/18 02:13:23;;;;;;;12.40;4.97;;;2.90;33.20;;;;;;4955411;28;20208;-75
2023/01/18 02:16:05;;;;;;;12.80;5.80;;;2.80;33.20;;;;;;4956413;28;20686;-75
2023/01/18 02:18:39;;;;;;;11.00;5.23;;;2.80;33.10;;;;;;4952275;28;20436;-75
2023/01/18 02:21:17;;;;;;;11.17;5.50;;;2.80;33.10;;;;;;4954151;28;20465;-75
2023/01/18 02:24:29;;;;;;;11.43;6.23;;;2.80;33.10;;;;;;4955590;28;20460;-75
2023/01/18 02:27:02;;;;;;;12.00;6.33;;;2.80;33.10;;;;;;4954138;29;20950;-75
2023/01/18 02:29:50;;;;;;;13.80;7.10;;;2.70;33.10;;;;;;4954012;28;20464;-75
2023/01/18 02:32:15;;;;;;;17.20;7.13;;;2.80;33.30;;;;;;4954614;28;20467;-73
2023/01/18 02:34:48;;;;;;;17.17;7.80;;;2.80;33.40;;;;;;4953158;28;20977;-75
2023/01/18 02:37:43;;;;;;;22.53;7.73;;;2.90;33.20;;;;;;4953368;29;20181;-75
2023/01/18 02:40:20;;;;;;;15.77;7.23;;;2.90;33.20;;;;;;4954790;28;20459;-74
2023/01/18 02:48:40;;;;;;;10.63;5.60;;;2.80;33.10;;;;;;4955829;28;20448;-76
2023/01/18 02:51:06;;;;;;;12.23;7.03;;;2.70;33.00;;;;;;4951345;28;20460;-75
2023/01/18 02:53:35;;;;;;;14.87;7.60;;;2.70;34.30;;;;;;4948097;28;20455;-74
2023/01/18 02:56:19;;;;;;;13.63;7.10;;;2.70;33.10;;;;;;4952343;28;20219;-75
2023/01/18 02:58:52;;;;;;;13.40;6.60;;;2.70;33.60;;;;;;4947190;28;20435;-75
2023/01/18 03:01:37;;;;;;;15.87;6.90;;;2.20;32.80;;;;;;4952402;28;20456;-74
2023/01/18 03:04:14;;;;;;;9.43;6.13;;;2.80;33.30;;;;;;4952567;28;20527;-74
2023/01/18 03:06:45;;;;;;;13.10;6.60;;;3.10;33.40;;;;;;4949558;28;21017;-75
2023/01/18 03:09:17;;;;;;;14.60;7.03;;;2.60;30.90;;;;;;4952003;28;20818;-74
2023/01/18 03:12:04;;;;;;;11.17;6.20;;;2.60;33.10;;;;;;4954012;28;20428;-73
2023/01/18 03:14:46;;;;;;;9.43;5.40;;;2.70;33.00;;;;;;4951545;28;20981;-75
2023/01/18 03:17:30;;;;;;;12.03;6.47;;;2.60;33.00;;;;;;4949479;28;20967;-75
2023/01/18 03:20:08;;;;;;;18.90;6.90;;;2.60;33.00;;;;;;4949802;28;20463;-75
2023/01/18 03:25:28;;;;;;;12.63;6.57;;;2.60;33.00;;;;;;4952316;28;20446;-75
2023/01/18 03:33:45;;;;;;;8.53;5.93;;;2.60;33.00;;;;;;4953455;28;20539;-75
2023/01/18 03:36:16;;;;;;;10.13;6.57;;;2.70;33.00;;;;;;4950032;29;20471;-74
2023/01/18 03:38:45;;;;;;;9.50;6.60;;;3.00;33.30;;;;;;4952999;28;20587;-75
2023/01/18 03:41:12;;;;;;;13.10;6.30;;;2.70;33.10;;;;;;4953008;28;20455;-75
2023/01/18 03:43:40;;;;;;;9.73;5.77;;;3.00;33.40;;;;;;4943877;28;21041;-75
2023/01/18 03:46:07;;;;;;;9.30;6.43;;;2.80;31.50;;;;;;4954121;28;20442;-75
2023/01/18 03:48:35;;;;;;;8.17;5.77;;;2.70;25.60;;;;;;4951148;28;20578;-75
2023/01/18 03:51:18;;;;;;;11.20;6.40;;;2.90;25.20;;;;;;4946707;28;20482;-75
2023/01/18 03:53:53;;;;;;;9.70;6.17;;;2.70;21.90;;;;;;4950047;28;20452;-72
2023/01/18 03:56:31;;;;;;;9.97;5.93;;;2.60;25.30;;;;;;4949068;28;20466;-75
2023/01/18 03:59:01;;;;;;;10.03;6.13;;;2.60;24.10;;;;;;4953909;28;20497;-75
2023/01/18 04:01:27;;;;;;;7.97;5.73;;;2.60;22.30;;;;;;4947829;29;20963;-75
2023/01/18 04:03:53;;;;;;;7.40;5.23;;;2.60;22.50;;;;;;4954450;28;20448;-75
2023/01/18 04:06:21;;;;;;;8.17;5.70;;;2.60;21.90;;;;;;4948622;28;20196;-75
2023/01/18 04:08:48;;;;;;;10.57;5.90;;;2.60;23.00;;;;;;4952527;28;20235;-75
2023/01/18 04:11:13;;;;;;;9.23;6.13;;;2.60;25.40;;;;;;4951608;28;20819;-74
2023/01/18 04:13:39;;;;;;;9.57;5.70;;;2.80;26.10;;;;;;4951188;28;20455;-75
2023/01/18 04:16:05;;;;;;;10.53;6.10;;;2.50;17.40;;;;;;4951080;28;20240;-75
2023/01/18 04:18:30;;;;;;;10.17;6.37;;;2.40;18.60;;;;;;4947646;28;20242;-75
2023/01/18 04:20:56;;;;;;;14.50;6.60;;;2.50;20.10;;;;;;4947881;28;20749;-75
2023/01/18 04:23:22;;;;;;;11.50;6.73;;;2.60;24.90;;;;;;4948414;28;20184;-75
2023/01/18 04:25:49;;;;;;;14.20;5.77;;;2.80;24.20;;;;;;4951256;28;20583;-75
2023/01/18 04:28:16;;;;;;;12.33;5.83;;;2.70;20.20;;;;;;4954174;28;20440;-75
2023/01/18 04:30:41;;;;;;;12.93;6.00;;;2.20;24.90;;;;;;4952625;28;20501;-75
2023/01/18 04:33:07;;;;;;;11.53;6.53;;;2.70;29.00;;;;;;4952886;28;20491;-75
2023/01/18 04:35:33;;;;;;;8.40;5.87;;;2.20;21.20;;;;;;4951712;28;20282;-76
2023/01/18 04:37:59;;;;;;;10.43;6.20;;;2.20;19.30;;;;;;4951481;29;20235;-73
2023/01/18 04:40:24;;;;;;;10.53;6.20;;;2.10;21.80;;;;;;4952043;28;21002;-74
2023/01/18 04:42:53;;;;;;;9.63;5.67;;;2.20;25.50;;;;;;4952319;28;20224;-75
2023/01/18 04:45:19;;;;;;;9.50;5.93;;;2.60;21.70;;;;;;4950989;28;20199;-76
2023/01/18 04:47:45;;;;;;;8.37;6.00;;;2.50;17.60;;;;;;4953471;28;20463;-75
2023/01/18 04:50:11;;;;;;;8.87;5.97;;;2.50;22.50;;;;;;4949884;28;20503;-75
2023/01/18 04:52:36;;;;;;;9.50;6.00;;;2.10;21.00;;;;;;4948175;28;20196;-75
2023/01/18 04:55:02;;;;;;;11.17;6.13;;;2.10;15.90;;;;;;4952247;28;20516;-75
2023/01/18 04:57:27;;;;;;;10.33;6.27;;;2.10;17.10;;;;;;4950177;28;20192;-75
2023/01/18 04:59:53;;;;;;;8.90;5.83;;;2.10;15.70;;;;;;4952293;28;20718;-75
2023/01/18 05:02:19;;;;;;;10.73;5.90;;;2.60;13.10;;;;;;4947852;28;20212;-75
2023/01/18 05:04:44;;;;;;;10.33;5.67;;;2.10;14.50;;;;;;4952268;28;20200;-75
2023/01/18 05:07:10;;;;;;;7.73;5.33;;;2.30;16.30;;;;;;4947916;29;20682;-75
2023/01/18 05:09:36;;;;;;;10.20;5.30;;;2.20;14.20;;;;;;4950370;28;20778;-75
2023/01/18 05:12:01;;;;;;;12.10;6.47;;;2.30;17.70;;;;;;4950900;28;20507;-75
2023/01/18 05:14:27;;;;;;;9.53;6.67;;;2.30;14.10;;;;;;4945283;28;20192;-75
2023/01/18 05:16:52;;;;;;;10.17;6.23;;;2.60;15.50;;;;;;4946584;28;20209;-75
2023/01/18 05:19:18;;;;;;;12.90;6.30;;;2.30;12.60;;;;;;4946426;28;20643;-74
2023/01/18 05:21:43;;;;;;;9.60;6.27;;;2.60;18.50;;;;;;4950549;28;20180;-75
2023/01/18 05:24:09;;;;;;;8.87;5.80;;;2.30;12.90;;;;;;4950822;28;20192;-75
2023/01/18 05:26:35;;;;;;;11.80;5.90;;;2.30;14.70;;;;;;4950460;28;20203;-75
2023/01/18 05:29:01;;;;;;;9.00;6.10;;;2.30;14.10;;;;;;4949486;29;20231;-76
2023/01/18 05:31:26;;;;;;;9.53;5.67;;;2.20;15.60;;;;;;4946840;28;20534;-75
2023/01/18 05:33:52;;;;;;;10.47;5.60;;;2.80;16.70;;;;;;4947560;28;20181;-75
2023/01/18 05:36:17;;;;;;;8.40;5.27;;;2.20;14.40;;;;;;4945872;28;20286;-76
2023/01/18 05:38:43;;;;;;;9.90;6.50;;;2.30;12.20;;;;;;4943173;28;20231;-76
2023/01/18 05:41:08;;;;;;;9.57;5.60;;;2.20;17.50;;;;;;4947800;29;20287;-74
2023/01/18 05:43:34;;;;;;;8.00;5.80;;;2.40;11.50;;;;;;4950125;28;20187;-76
2023/01/18 05:46:00;;;;;;;10.43;6.57;;;2.10;15.30;;;;;;4946519;28;20360;-75
2023/01/18 05:48:25;;;;;;;9.60;6.50;;;2.00;17.20;;;;;;4947542;28;20660;-75
2023/01/18 05:50:51;;;;;;;10.70;6.47;;;2.10;22.10;;;;;;4950865;28;20291;-75
2023/01/18 05:53:20;;;;;;;10.43;6.43;;;2.60;23.50;;;;;;4948505;28;20196;-75
2023/01/18 05:55:54;;;;;;;17.27;6.53;;;2.20;24.00;;;;;;4948480;28;20204;-76
2023/01/18 05:58:20;;;;;;;15.70;7.17;;;2.20;26.20;;;;;;4949841;28;20451;-75
2023/01/18 06:00:45;;;;;;;11.40;6.90;;;2.60;22.00;;;;;;4948098;28;20475;-76
2023/01/18 06:03:11;;;;;;;10.10;6.90;;;2.10;25.50;;;;;;4950810;28;20662;-75
2023/01/18 06:05:36;;;;;;;15.30;6.97;;;2.20;27.10;;;;;;4948827;28;20251;-75
2023/01/18 06:08:02;;;;;;;16.00;7.27;;;2.20;32.60;;;;;;4950899;28;20884;-75
2023/01/18 06:10:27;;;;;;;12.00;6.90;;;2.40;25.60;;;;;;4948978;28;20215;-76
2023/01/18 06:12:53;;;;;;;14.27;6.57;;;2.20;26.80;;;;;;4952016;28;20284;-76
2023/01/18 06:15:18;;;;;;;9.97;7.10;;;2.10;32.50;;;;;;4947628;28;20216;-75
2023/01/18 06:17:45;;;;;;;12.07;7.60;;;2.20;32.20;;;;;;4943861;28;20193;-76
2023/01/18 06:20:12;;;;;;;17.70;7.93;;;2.20;32.70;;;;;;4949204;28;20215;-75
2023/01/18 06:22:37;;;;;;;12.30;8.30;;;2.20;32.60;;;;;;4951278;28;20431;-76
2023/01/18 06:25:03;;;;;;;16.07;7.60;;;2.40;32.80;;;;;;4942469;28;20439;-75
2023/01/18 06:27:29;;;;;;;14.50;9.07;;;2.20;32.50;;;;;;4948635;28;20682;-75
2023/01/18 06:29:55;;;;;;;13.93;8.73;;;2.50;35.40;;;;;;4952287;28;20267;-73
2023/01/18 06:32:21;;;;;;;12.87;8.57;;;2.30;32.70;;;;;;4947961;28;20216;-75
2023/01/18 06:34:47;;;;;;;15.73;8.37;;;2.20;32.70;;;;;;4950781;28;20180;-76
2023/01/18 06:37:13;;;;;;;14.70;8.80;;;2.10;24.80;;;;;;4948844;28;20475;-76
2023/01/18 06:39:38;;;;;;;14.60;9.20;;;2.40;32.70;;;;;;4953787;28;20215;-76
2023/01/18 06:42:04;;;;;;;15.93;9.07;;;2.40;32.70;;;;;;4951346;28;20471;-77
2023/01/18 06:44:30;;;;;;;14.23;9.33;;;2.10;32.50;;;;;;4953850;28;20741;-75
2023/01/18 06:46:55;;;;;;;15.30;8.80;;;2.40;33.00;;;;;;4954258;28;20539;-75
2023/01/18 06:49:21;;;;;;;14.30;8.33;;;2.60;33.00;;;;;;4949942;28;20757;-76
2023/01/18 06:51:46;;;;;;;17.20;8.90;;;2.40;32.70;;;;;;4952953;28;20181;-77
2023/01/18 06:54:14;;;;;;;18.13;9.80;;;2.40;32.80;;;;;;4954391;28;20195;-76
2023/01/18 06:56:39;;;;;;;13.00;8.83;;;2.30;32.70;;;;;;4953226;28;20223;-76
2023/01/18 06:59:05;;;;;;;17.10;9.40;;;2.30;32.70;;;;;;4953390;28;20962;-76
2023/01/18 07:01:31;;;;;;;20.07;9.53;;;2.30;32.70;;;;;;4953443;28;20669;-75
2023/01/18 07:03:56;;;;;;;14.57;9.33;;;2.30;32.70;;;;;;4952367;28;20251;-75
2023/01/18 07:06:22;;;;;;;13.17;8.53;;;2.30;32.70;;;;;;4951238;28;20212;-74
2023/01/18 07:08:48;;;;;;;16.13;8.10;;;2.50;32.90;;;;;;4948962;28;20184;-74
2023/01/18 07:11:14;;;;;;;15.17;8.60;;;2.40;31.60;;;;;;4952730;28;20204;-75
2023/01/18 07:13:42;;;;;;;13.93;7.70;;;2.40;32.70;;;;;;4947054;28;20966;-75
2023/01/18 07:16:16;;;;;;;12.30;7.70;;;2.80;27.30;;;;;;4950204;28;20235;-75
2023/01/18 07:18:44;;;;;;;13.97;6.90;;;2.40;24.10;;;;;;4944111;28;20451;-76
2023/01/18 07:21:09;;;;;;;15.70;9.00;;;2.20;23.30;;;;;;4942821;28;20834;-75
2023/01/18 07:23:37;;;;;;;11.70;7.67;;;2.20;32.60;;;;;;4952779;28;20444;-75
2023/01/18 07:26:08;;;;;;;11.40;7.40;;;2.70;33.00;;;;;;4949550;28;20275;-75
2023/01/18 07:28:35;;;;;;;20.90;8.03;;;2.30;28.60;;;;;;4953410;28;20436;-75
2023/01/18 07:31:01;;;;;;;12.80;8.67;;;2.30;32.70;;;;;;4951474;28;20470;-75
2023/01/18 07:33:28;;;;;;;14.53;8.13;;;2.30;32.70;;;;;;4951205;28;20452;-75
2023/01/18 07:35:55;;;;;;;13.33;8.00;;;2.30;32.80;;;;;;4946254;28;20981;-75
2023/01/18 07:38:21;;;;;;;13.47;8.20;;;2.40;32.70;;;;;;4945865;28;20452;-75
2023/01/18 07:40:47;;;;;;;14.37;8.03;;;2.30;25.50;;;;;;4948909;28;20470;-75
2023/01/18 07:43:14;;;;;;;18.20;9.23;;;2.60;31.60;;;;;;4950910;28;20447;-75
2023/01/18 07:45:40;;;;;;;18.27;9.27;;;2.30;32.10;;;;;;4947870;28;20236;-76
2023/01/18 07:48:06;;;;;;;18.77;11.20;;;2.30;28.50;;;;;;4941691;28;20923;-75
2023/01/18 07:50:34;;;;;;;21.10;11.33;;;2.30;29.90;;;;;;4939811;28;20231;-75
2023/01/18 07:53:05;;;;;;;17.90;11.13;;;2.80;33.20;;;;;;4947148;28;20192;-75
2023/01/18 07:55:32;;;;;;;19.50;12.20;;;2.80;29.00;;;;;;4950320;28;20981;-76
2023/01/18 07:57:59;;;;;;;26.23;13.50;;;2.60;25.00;;;;;;4945508;28;21014;-78
2023/01/18 08:00:25;;;;;;;31.33;14.23;;;2.70;20.50;;;;;;4971825;23;21007;-75
2023/01/18 08:02:51;;;;;;;30.60;17.20;;;3.30;20.00;;;;;;4969251;28;20442;-78
2023/01/18 08:05:22;;;;;;;28.17;12.60;;;3.00;21.50;;;;;;4964380;28;20432;-77
2023/01/18 08:07:52;;;;;;;16.73;9.83;;;3.00;20.10;;;;;;4974719;28;20513;-78
2023/01/18 08:10:18;;;;;;;18.47;9.90;;;2.60;24.30;;;;;;4969890;28;20497;-78
2023/01/18 08:12:44;;;;;;;16.00;9.53;;;2.70;19.00;;;;;;4972814;28;20439;-78
2023/01/18 08:15:10;;;;;;;13.40;8.07;;;2.70;21.10;;;;;;4976276;28;20810;-78
2023/01/18 08:17:36;;;;;;;15.53;8.47;;;2.80;20.40;;;;;;4967354;28;20192;-78
2023/01/18 08:20:04;;;;;;;14.40;9.13;;;3.00;18.20;;;;;;4976522;28;20933;-78
2023/01/18 08:22:30;;;;;;;14.20;8.73;;;2.80;18.30;;;;;;4972714;28;20960;-78
2023/01/18 08:24:56;;;;;;;16.17;8.57;;;2.70;18.40;;;;;;4971751;28;20431;-77
2023/01/18 08:27:21;;;;;;;20.90;8.23;;;2.80;20.90;;;;;;4970308;28;20715;-78
2023/01/18 08:29:47;;;;;;;11.77;7.93;;;2.90;19.20;;;;;;4969055;28;20558;-78
2023/01/18 08:32:12;;;;;;;18.20;8.70;;;3.40;21.20;;;;;;4971033;28;20684;-78
2023/01/18 08:34:38;;;;;;;19.77;9.97;;;3.40;19.20;;;;;;4970605;28;20195;-78
2023/01/18 08:37:04;;;;;;;15.20;8.37;;;3.20;14.60;;;;;;4971538;28;20678;-79
2023/01/18 08:39:30;;;;;;;14.10;8.20;;;3.10;13.10;;;;;;4970563;28;20191;-77
2023/01/18 08:41:55;;;;;;;14.37;7.37;;;3.20;12.20;;;;;;4971403;28;20984;-78
2023/01/18 08:44:21;;;;;;;13.30;8.20;;;3.30;10.80;;;;;;4970795;28;20194;-78
2023/01/18 08:46:46;;;;;;;15.30;7.63;;;3.70;9.20;;;;;;4969066;28;20226;-78
2023/01/18 08:49:12;;;;;;;17.47;7.43;;;3.70;7.20;;;;;;4968513;28;20192;-78
2023/01/18 08:51:38;;;;;;;11.97;7.33;;;3.50;7.20;;;;;;4969361;28;20221;-78
2023/01/18 08:54:05;;;;;;;16.43;8.40;;;3.40;5.20;;;;;;4975576;28;21008;-78
2023/01/18 08:56:31;;;;;;;13.03;6.90;;;3.40;2.60;;;;;;4969583;28;20206;-79
2023/01/18 08:58:57;;;;;;;12.10;7.37;;;3.60;3.10;;;;;;4970287;28;20438;-78
2023/01/18 09:01:22;;;;;;;14.03;6.80;;;3.70;2.10;;;;;;4970207;28;20470;-78
2023/01/18 09:03:49;;;;;;;12.93;7.83;;;4.00;2.80;;;;;;4963022;28;20189;-78
2023/01/18 09:06:15;;;;;;;11.43;6.47;;;3.90;1.00;;;;;;4971238;28;20266;-78
2023/01/18 09:08:41;;;;;;;14.73;6.90;;;3.90;1.00;;;;;;4967722;28;20455;-78
2023/01/18 09:11:09;;;;;;;10.50;6.90;;;3.80;1.00;;;;;;4973792;28;20462;-78
2023/01/18 09:13:35;;;;;;;11.17;6.80;;;4.30;1.00;;;;;;4970748;28;20191;-78
2023/01/18 09:16:03;;;;;;;17.57;7.43;;;4.10;1.00;;;;;;4968988;28;20872;-78
2023/01/18 09:18:29;;;;;;;11.40;7.33;;;4.20;1.00;;;;;;4967153;28;20953;-79
2023/01/18 09:20:55;;;;;;;17.20;8.00;;;4.60;1.00;;;;;;4971669;28;20451;-78
2023/01/18 09:23:21;;;;;;;13.43;6.73;;;4.90;1.00;;;;;;4971646;28;20183;-78
2023/01/18 09:25:47;;;;;;;12.63;6.70;;;4.60;1.00;;;;;;4969947;28;20956;-78
2023/01/18 09:28:13;;;;;;;18.37;7.20;;;4.80;1.00;;;;;;4973741;28;20453;-78
2023/01/18 09:30:38;;;;;;;18.47;6.97;;;5.20;1.00;;;;;;4976956;28;20333;-77
2023/01/18 09:33:04;;;;;;;10.93;7.87;;;4.80;1.00;;;;;;4969185;28;20650;-78
2023/01/18 09:35:30;;;;;;;9.93;7.20;;;5.10;1.00;;;;;;4971620;28;20215;-78
2023/01/18 09:37:56;;;;;;;14.23;6.80;;;4.80;1.00;;;;;;4966799;28;20176;-78
2023/01/18 09:40:29;;;;;;;13.83;7.30;;;4.80;1.00;;;;;;4966922;28;20458;-78
2023/01/18 09:42:55;;;;;;;15.73;7.03;;;4.80;1.00;;;;;;4967839;28;20439;-78
2023/01/18 09:45:27;;;;;;;17.53;7.10;;;4.60;1.00;;;;;;4968332;28;20434;-77
2023/01/18 09:48:04;;;;;;;13.97;7.73;;;4.60;1.00;;;;;;4968850;28;20180;-77
2023/01/18 09:50:37;;;;;;;17.80;6.90;;;4.50;1.00;;;;;;4968204;28;20458;-78
2023/01/18 09:53:17;;;;;;;11.17;5.63;;;4.40;1.00;;;;;;4972083;28;20431;-77
2023/01/18 09:56:27;;;;;;;12.17;5.53;;;4.50;1.00;;;;;;4975157;28;20971;-77
2023/01/18 09:59:12;;;;;;;9.27;4.90;;;4.60;1.00;;;;;;4981947;28;20446;-78
2023/01/18 10:01:38;;;;;;;12.60;5.07;;;4.70;1.00;;;;;;4968757;28;20470;-78
2023/01/18 10:04:16;;;;;;;15.60;5.47;;;5.10;1.00;;;;;;4967795;28;20438;-77
2023/01/18 10:06:51;;;;;;;9.97;4.70;;;4.70;1.00;;;;;;4969065;28;20825;-77
2023/01/18 10:09:41;;;;;;;15.80;5.97;;;5.20;1.00;;;;;;4968793;28;20454;-78
2023/01/18 10:12:20;;;;;;;11.17;5.10;;;4.90;1.00;;;;;;4972115;28;20455;-77
2023/01/18 10:15:03;;;;;;;7.40;4.97;;;5.00;1.00;;;;;;4972749;28;20492;-77
2023/01/18 10:17:37;;;;;;;11.83;5.67;;;5.10;1.00;;;;;;4969419;28;20794;-77
2023/01/18 10:20:39;;;;;;;7.10;4.60;;;5.30;1.00;;;;;;4964389;28;20439;-78
2023/01/18 10:23:08;;;;;;;9.10;4.83;;;5.30;1.00;;;;;;4966448;28;20931;-77
2023/01/18 10:25:43;;;;;;;12.57;4.63;;;5.40;1.00;;;;;;4970697;28;20454;-77
2023/01/18 10:28:46;;;;;;;14.43;4.37;;;5.60;1.00;;;;;;4966486;28;20437;-77
2023/01/18 10:31:16;;;;;;;10.67;5.40;;;6.00;1.00;;;;;;4969674;28;20466;-77
2023/01/18 10:33:43;;;;;;;14.97;4.60;;;7.80;1.00;;;;;;4973556;28;20434;-78
2023/01/18 10:36:17;;;;;;;10.47;4.27;;;9.00;1.00;;;;;;4976708;28;20617;-77
2023/01/18 10:38:43;;;;;;;9.87;4.30;;;9.60;1.00;;;;;;4972731;28;20554;-78
2023/01/18 10:41:30;;;;;;;7.13;3.97;;;9.60;1.00;;;;;;4968462;28;20957;-78
2023/01/18 10:43:55;;;;;;;4.83;4.00;;;9.60;1.00;;;;;;4971827;28;20809;-78
2023/01/18 10:46:21;;;;;;;6.40;4.20;;;10.30;1.00;;;;;;4974062;28;20443;-78
2023/01/18 10:48:49;;;;;;;10.43;4.30;;;10.30;1.00;;;;;;4971832;28;20729;-77
2023/01/18 10:51:37;;;;;;;6.83;4.47;;;9.80;1.00;;;;;;4971944;28;20238;-78
2023/01/18 10:54:24;;;;;;;5.73;4.20;;;10.90;1.00;;;;;;4973998;28;20458;-78
2023/01/18 10:57:00;;;;;;;5.53;4.27;;;10.30;1.00;;;;;;4971848;28;20497;-78
2023/01/18 10:59:35;;;;;;;7.03;4.60;;;9.80;1.00;;;;;;4973526;28;20852;-78
2023/01/18 11:02:00;;;;;;;8.57;4.20;;;9.30;1.00;;;;;;4973103;28;20852;-77
2023/01/18 11:04:30;;;;;;;6.43;4.10;;;8.80;1.00;;;;;;4979630;28;20449;-78
2023/01/18 11:06:58;;;;;;;4.93;3.70;;;9.30;1.00;;;;;;4972002;28;20733;-78
2023/01/18 11:09:58;;;;;;;6.10;3.37;;;11.60;1.00;;;;;;4970403;28;20522;-77
2023/01/18 11:12:33;;;;;;;7.73;4.00;;;14.20;1.00;;;;;;4969420;28;20435;-78
2023/01/18 11:15:28;;;;;;;7.43;4.20;;;15.30;1.00;;;;;;4971335;28;20426;-78
2023/01/18 11:17:59;;;;;;;6.10;4.10;;;15.60;1.00;;;;;;4968093;28;20475;-78
2023/01/18 11:20:50;;;;;;;8.00;4.50;;;14.80;1.00;;;;;;4969686;28;20786;-79
2023/01/18 11:23:20;;;;;;;8.57;4.40;;;13.30;1.00;;;;;;4966479;28;20458;-79
2023/01/18 11:26:01;;;;;;;6.53;4.40;;;12.30;1.00;;;;;;4970725;28;20412;-76
2023/01/18 11:28:48;;;;;;;7.20;4.40;;;11.70;1.00;;;;;;4972950;28;20415;-76
2023/01/18 11:31:22;;;;;;;9.90;4.10;;;11.60;1.00;;;;;;4966775;28;20443;-76
2023/01/18 11:33:51;;;;;;;5.00;3.90;;;12.30;1.00;;;;;;4973068;28;20466;-76
2023/01/18 11:36:19;;;;;;;8.00;4.27;;;12.40;1.00;;;;;;4969575;28;20521;-76
2023/01/18 11:38:46;;;;;;;6.27;3.83;;;12.10;1.00;;;;;;4970394;28;20439;-76
2023/01/18 11:41:22;;;;;;;7.40;4.10;;;11.20;1.00;;;;;;4970968;28;20447;-76
2023/01/18 11:44:22;;;;;;;9.70;5.50;;;10.50;1.00;;;;;;4967115;28;20461;-75
2023/01/18 11:46:54;;;;;;;7.20;4.60;;;10.10;1.00;;;;;;4979707;28;20474;-75
2023/01/18 11:49:41;;;;;;;10.23;4.33;;;9.90;1.00;;;;;;4964270;28;20509;-76
2023/01/18 11:52:23;;;;;;;12.73;5.40;;;9.60;1.00;;;;;;4968270;28;20450;-76
2023/01/18 11:54:57;;;;;;;7.47;4.83;;;9.60;1.00;;;;;;4970147;28;20875;-75
2023/01/18 11:57:23;;;;;;;6.30;4.73;;;9.60;1.00;;;;;;4967726;28;20467;-75
2023/01/18 11:59:48;;;;;;;6.93;4.13;;;9.70;1.00;;;;;;4970318;28;20771;-75
2023/01/18 12:02:20;;;;;;;6.80;4.00;;;9.90;1.00;;;;;;4971584;28;20187;-76
2023/01/18 12:05:13;;;;;;;9.37;3.27;;;10.00;1.00;;;;;;4972497;28;20195;-75
2023/01/18 12:07:48;;;;;;;5.43;3.30;;;9.40;1.00;;;;;;4974818;28;20438;-75
2023/01/18 12:10:22;;;;;;;5.87;3.10;;;8.80;1.00;;;;;;4965523;28;20474;-76
2023/01/18 12:13:32;;;;;;;4.47;3.03;;;8.60;1.00;;;;;;4970088;28;20514;-76
2023/01/18 12:16:20;;;;;;;4.57;3.43;;;9.40;1.00;;;;;;4979722;28;20477;-76
2023/01/18 12:19:33;;;;;;;6.20;3.00;;;10.60;1.00;;;;;;4968482;28;20430;-77
2023/01/18 12:22:21;;;;;;;5.10;3.17;;;11.40;1.00;;;;;;4975656;28;20518;-76
2023/01/18 12:25:24;;;;;;;5.57;3.40;;;12.00;1.00;;;;;;4992466;28;20866;-77
2023/01/18 12:28:30;;;;;;;10.73;3.70;;;13.00;1.00;;;;;;4985016;28;20837;-77
2023/01/18 12:31:26;;;;;;;5.50;3.53;;;14.10;1.00;;;;;;4975902;28;20462;-77
2023/01/18 12:34:00;;;;;;;7.63;4.23;;;13.20;1.00;;;;;;4967948;28;20439;-76
2023/01/18 12:36:37;;;;;;;5.97;3.73;;;12.00;1.00;;;;;;4975476;28;20469;-77
2023/01/18 12:39:27;;;;;;;8.07;3.13;;;10.90;1.00;;;;;;4976146;28;20447;-77
2023/01/18 12:41:59;;;;;;;5.80;3.40;;;10.00;1.00;;;;;;4975013;28;20566;-77
2023/01/18 12:44:42;;;;;;;10.50;3.93;;;9.60;1.00;;;;;;4971632;28;20475;-77
2023/01/18 12:47:22;;;;;;;6.90;3.70;;;9.40;1.00;;;;;;4964821;28;20430;-78
2023/01/18 12:49:54;;;;;;;7.10;3.90;;;9.10;1.00;;;;;;4970334;28;20438;-76
2023/01/18 12:52:22;;;;;;;8.33;3.90;;;9.30;1.00;;;;;;4965512;28;20802;-77
2023/01/18 12:54:54;;;;;;;6.20;3.63;;;11.40;1.00;;;;;;4970795;28;20431;-77
2023/01/18 12:57:21;;;;;;;5.63;3.90;;;13.20;1.00;;;;;;4971268;28;20498;-77
2023/01/18 12:59:52;;;;;;;5.07;4.00;;;14.40;1.00;;;;;;4969794;28;20443;-76
2023/01/18 13:02:35;;;;;;;9.90;3.90;;;14.90;1.00;;;;;;4971246;28;20486;-78
2023/01/18 13:05:09;;;;;;;6.20;4.07;;;15.40;1.00;;;;;;4970361;28;20879;-77
2023/01/18 13:07:39;;;;;;;7.63;4.13;;;15.60;1.00;;;;;;4966643;28;20782;-77
2023/01/18 13:10:12;;;;;;;5.50;3.80;;;15.60;1.00;;;;;;4970956;28;20777;-77
2023/01/18 13:12:38;;;;;;;8.03;3.90;;;15.60;1.00;;;;;;4968637;28;20483;-77
2023/01/18 13:15:18;;;;;;;14.70;7.03;;;14.80;1.00;;;;;;4968644;28;20432;-77
2023/01/18 13:18:14;;;;;;;8.30;4.27;;;13.60;1.00;;;;;;4969208;28;20490;-76
2023/01/18 13:20:53;;;;;;;9.00;4.03;;;12.40;1.00;;;;;;4970202;28;20458;-78
2023/01/18 13:23:22;;;;;;;9.90;5.50;;;11.40;1.00;;;;;;4967469;28;20537;-77
2023/01/18 13:25:54;;;;;;;5.33;3.77;;;10.90;1.00;;;;;;4970416;28;20485;-78
2023/01/18 13:28:24;;;;;;;7.73;4.17;;;10.30;1.00;;;;;;4970358;28;21039;-78
2023/01/18 13:30:59;;;;;;;6.63;4.50;;;9.60;1.00;;;;;;4968766;28;20465;-77
2023/01/18 13:33:44;;;;;;;8.63;4.23;;;9.20;1.00;;;;;;4970609;28;20838;-78
2023/01/18 13:36:13;;;;;;;8.40;5.20;;;8.90;1.00;;;;;;4970400;28;20896;-77
2023/01/18 13:38:51;;;;;;;8.57;4.83;;;8.50;1.00;;;;;;4969295;28;20426;-77
2023/01/18 13:41:25;;;;;;;12.90;5.37;;;8.00;1.00;;;;;;4969062;28;20434;-77
2023/01/18 13:43:52;;;;;;;6.20;4.50;;;7.90;1.00;;;;;;4970109;28;20443;-77
2023/01/18 13:46:20;;;;;;;9.37;4.77;;;7.70;1.00;;;;;;4970310;28;20947;-77